createdAt,value
2018-09-23T00:00:02.173Z,993.68
2018-09-23T00:01:02.349Z,993.71
2018-09-23T00:02:02.530Z,993.67
2018-09-23T00:03:02.703Z,993.65
2018-09-23T00:04:02.879Z,993.64
2018-09-23T00:05:03.064Z,993.61
2018-09-23T00:06:03.232Z,993.63
2018-09-23T00:07:03.411Z,993.61
2018-09-23T00:08:03.586Z,993.63
2018-09-23T00:09:03.761Z,993.60
2018-09-23T00:10:03.941Z,993.59
2018-09-23T00:11:04.119Z,993.55
2018-09-23T00:12:04.295Z,993.56
2018-09-23T00:13:04.470Z,993.52
2018-09-23T00:14:04.643Z,993.46
2018-09-23T00:15:04.821Z,993.43
2018-09-23T00:16:05.010Z,993.48
2018-09-23T00:17:05.181Z,993.44
2018-09-23T00:18:05.361Z,993.40
2018-09-23T00:19:05.534Z,993.46
2018-09-23T00:20:05.713Z,993.43
2018-09-23T00:21:05.886Z,993.39
2018-09-23T00:22:06.089Z,993.40
2018-09-23T00:23:06.245Z,993.36
2018-09-23T00:24:06.422Z,993.38
2018-09-23T00:25:06.595Z,993.35
2018-09-23T00:26:06.773Z,993.37
2018-09-23T00:27:06.952Z,993.32
2018-09-23T00:28:07.131Z,993.38
2018-09-23T00:29:07.304Z,993.33
2018-09-23T00:30:07.484Z,993.35
2018-09-23T00:31:07.661Z,993.34
2018-09-23T00:32:07.835Z,993.38
2018-09-23T00:33:08.012Z,993.39
2018-09-23T00:34:08.190Z,993.40
2018-09-23T00:35:08.367Z,993.35
2018-09-23T00:36:08.547Z,993.37
2018-09-23T00:37:08.722Z,993.34
2018-09-23T00:38:08.898Z,993.32
2018-09-23T00:39:09.076Z,993.32
2018-09-23T00:40:09.256Z,993.31
2018-09-23T00:41:09.429Z,993.31
2018-09-23T00:42:09.609Z,993.35
2018-09-23T00:43:09.782Z,993.37
2018-09-23T00:44:09.958Z,993.37
2018-09-23T00:45:10.137Z,993.37
2018-09-23T00:46:10.322Z,993.33
2018-09-23T00:47:10.495Z,993.29
2018-09-23T00:48:10.672Z,993.30
2018-09-23T00:49:10.846Z,993.18
2018-09-23T00:50:11.023Z,993.16
2018-09-23T00:51:11.203Z,993.13
2018-09-23T00:52:11.380Z,993.06
2018-09-23T00:53:11.559Z,993.04
2018-09-23T00:54:11.733Z,993.04
2018-09-23T00:55:11.910Z,993.07
2018-09-23T00:56:12.088Z,993.03
2018-09-23T00:57:12.271Z,993.08
2018-09-23T00:58:12.430Z,993.04
2018-09-23T00:59:12.606Z,993.09
2018-09-23T01:00:12.779Z,993.10
2018-09-23T01:01:12.953Z,993.08
2018-09-23T01:02:13.133Z,993.05
2018-09-23T01:03:13.310Z,993.01
2018-09-23T01:04:13.485Z,993.02
2018-09-23T01:05:13.657Z,993.01
2018-09-23T01:06:13.836Z,993.01
2018-09-23T01:07:14.018Z,992.98
2018-09-23T01:08:14.190Z,992.97
2018-09-23T01:09:14.368Z,992.98
2018-09-23T01:10:14.546Z,992.94
2018-09-23T01:11:14.718Z,992.91
2018-09-23T01:12:14.897Z,992.88
2018-09-23T01:13:15.073Z,992.87
2018-09-23T01:14:15.256Z,992.87
2018-09-23T01:15:15.425Z,992.87
2018-09-23T01:16:15.607Z,992.83
2018-09-23T01:17:15.771Z,992.86
2018-09-23T01:18:15.947Z,992.83
2018-09-23T01:19:16.123Z,992.84
2018-09-23T01:20:16.298Z,992.79
2018-09-23T01:21:16.480Z,992.79
2018-09-23T01:22:16.653Z,992.75
2018-09-23T01:23:16.828Z,992.68
2018-09-23T01:24:17.008Z,992.70
2018-09-23T01:25:17.184Z,992.62
2018-09-23T01:26:17.380Z,992.56
2018-09-23T01:27:17.548Z,992.58
2018-09-23T01:28:17.720Z,992.57
2018-09-23T01:29:17.894Z,992.54
2018-09-23T01:30:18.073Z,992.50
2018-09-23T01:31:18.239Z,992.48
2018-09-23T01:32:18.415Z,992.49
2018-09-23T01:33:18.595Z,992.49
2018-09-23T01:34:18.770Z,992.50
2018-09-23T01:35:18.944Z,992.48
2018-09-23T01:36:19.120Z,992.47
2018-09-23T01:37:19.301Z,992.47
2018-09-23T01:38:19.477Z,992.46
2018-09-23T01:39:19.653Z,992.43
2018-09-23T01:40:19.827Z,992.42
2018-09-23T01:41:20.012Z,992.47
2018-09-23T01:42:20.181Z,992.48
2018-09-23T01:43:20.365Z,992.44
2018-09-23T01:44:20.537Z,992.45
2018-09-23T01:45:20.714Z,992.45
2018-09-23T01:46:20.894Z,992.38
2018-09-23T01:47:21.071Z,992.41
2018-09-23T01:48:21.257Z,992.38
2018-09-23T01:49:21.426Z,992.36
2018-09-23T01:50:21.599Z,992.32
2018-09-23T01:51:21.776Z,992.37
2018-09-23T01:52:21.952Z,992.30
2018-09-23T01:53:22.130Z,992.25
2018-09-23T01:54:22.306Z,992.19
2018-09-23T01:55:22.485Z,992.18
2018-09-23T01:56:22.664Z,992.14
2018-09-23T01:57:22.841Z,992.14
2018-09-23T01:58:23.019Z,992.15
2018-09-23T01:59:23.194Z,992.19
2018-09-23T02:00:23.371Z,992.15
2018-09-23T02:01:23.550Z,992.19
2018-09-23T02:02:23.730Z,992.20
2018-09-23T02:03:23.904Z,992.17
2018-09-23T02:04:24.083Z,992.16
2018-09-23T02:05:24.257Z,992.09
2018-09-23T02:06:24.435Z,992.13
2018-09-23T02:07:24.610Z,992.11
2018-09-23T02:08:24.793Z,992.09
2018-09-23T02:09:24.981Z,992.06
2018-09-23T02:10:25.147Z,991.97
2018-09-23T02:11:25.320Z,991.96
2018-09-23T02:12:25.500Z,991.96
2018-09-23T02:13:25.680Z,991.92
2018-09-23T02:14:25.856Z,991.93
2018-09-23T02:15:26.050Z,991.92
2018-09-23T02:16:26.195Z,991.95
2018-09-23T02:17:26.371Z,991.95
2018-09-23T02:18:26.547Z,991.97
2018-09-23T02:19:26.726Z,992.00
2018-09-23T02:20:26.905Z,991.95
2018-09-23T02:21:27.075Z,991.92
2018-09-23T02:22:27.255Z,991.90
2018-09-23T02:23:27.440Z,991.87
2018-09-23T02:24:27.609Z,991.86
2018-09-23T02:25:27.787Z,991.87
2018-09-23T02:26:27.966Z,991.88
2018-09-23T02:27:28.138Z,991.84
2018-09-23T02:28:28.314Z,991.85
2018-09-23T02:29:28.489Z,991.82
2018-09-23T02:30:28.668Z,991.81
2018-09-23T02:31:28.840Z,991.79
2018-09-23T02:32:29.016Z,991.84
2018-09-23T02:33:29.191Z,991.89
2018-09-23T02:34:29.368Z,991.96
2018-09-23T02:35:29.546Z,991.93
2018-09-23T02:36:29.721Z,991.88
2018-09-23T02:37:29.905Z,991.87
2018-09-23T02:38:30.082Z,991.86
2018-09-23T02:39:30.258Z,991.86
2018-09-23T02:40:30.431Z,991.84
2018-09-23T02:41:30.606Z,991.80
2018-09-23T02:42:30.787Z,991.74
2018-09-23T02:43:30.960Z,991.69
2018-09-23T02:44:31.133Z,991.68
2018-09-23T02:45:31.308Z,991.73
2018-09-23T02:46:31.485Z,991.69
2018-09-23T02:47:31.660Z,991.72
2018-09-23T02:48:31.836Z,991.67
2018-09-23T02:49:32.017Z,991.64
2018-09-23T02:50:32.194Z,991.59
2018-09-23T02:51:32.365Z,991.54
2018-09-23T02:52:32.544Z,991.55
2018-09-23T02:53:32.732Z,991.57
2018-09-23T02:54:32.897Z,991.58
2018-09-23T02:55:33.074Z,991.54
2018-09-23T02:56:33.251Z,991.50
2018-09-23T02:57:33.433Z,991.47
2018-09-23T02:58:33.604Z,991.41
2018-09-23T02:59:33.783Z,991.36
2018-09-23T03:00:33.963Z,991.32
2018-09-23T03:01:34.138Z,991.31
2018-09-23T03:02:34.311Z,991.34
2018-09-23T03:03:34.490Z,991.28
2018-09-23T03:04:34.668Z,991.29
2018-09-23T03:05:34.842Z,991.26
2018-09-23T03:06:35.016Z,991.25
2018-09-23T03:07:35.193Z,991.20
2018-09-23T03:08:35.366Z,991.24
2018-09-23T03:09:35.533Z,991.19
2018-09-23T03:10:35.718Z,991.21
2018-09-23T03:11:35.897Z,991.20
2018-09-23T03:12:36.080Z,991.21
2018-09-23T03:13:36.257Z,991.17
2018-09-23T03:14:36.429Z,991.12
2018-09-23T03:15:36.609Z,991.04
2018-09-23T03:16:36.794Z,991.01
2018-09-23T03:17:36.966Z,991.01
2018-09-23T03:18:37.137Z,990.97
2018-09-23T03:19:37.315Z,990.98
2018-09-23T03:20:37.494Z,991.00
2018-09-23T03:21:37.669Z,990.99
2018-09-23T03:22:37.844Z,990.99
2018-09-23T03:23:38.048Z,990.94
2018-09-23T03:24:38.201Z,990.95
2018-09-23T03:25:38.388Z,990.94
2018-09-23T03:26:38.561Z,990.91
2018-09-23T03:27:38.733Z,990.90
2018-09-23T03:28:38.905Z,990.92
2018-09-23T03:29:39.092Z,990.90
2018-09-23T03:30:39.263Z,990.85
2018-09-23T03:31:39.437Z,990.81
2018-09-23T03:32:39.626Z,990.74
2018-09-23T03:33:39.795Z,990.64
2018-09-23T03:34:39.973Z,990.58
2018-09-23T03:35:40.152Z,990.60
2018-09-23T03:36:40.327Z,990.64
2018-09-23T03:37:40.503Z,990.63
2018-09-23T03:38:40.686Z,990.62
2018-09-23T03:39:40.864Z,990.55
2018-09-23T03:40:41.036Z,990.63
2018-09-23T03:41:41.220Z,990.66
2018-09-23T03:42:41.387Z,990.68
2018-09-23T03:43:41.561Z,990.63
2018-09-23T03:44:41.739Z,990.63
2018-09-23T03:45:41.916Z,990.63
2018-09-23T03:46:42.095Z,990.64
2018-09-23T03:47:42.270Z,990.60
2018-09-23T03:48:42.457Z,990.59
2018-09-23T03:49:42.633Z,990.62
2018-09-23T03:50:42.801Z,990.60
2018-09-23T03:51:42.981Z,990.61
2018-09-23T03:52:43.156Z,990.53
2018-09-23T03:53:43.335Z,990.46
2018-09-23T03:54:43.513Z,990.36
2018-09-23T03:55:43.688Z,990.30
2018-09-23T03:56:43.875Z,990.26
2018-09-23T03:57:44.041Z,990.21
2018-09-23T03:58:44.217Z,990.14
2018-09-23T03:59:44.394Z,990.10
2018-09-23T04:00:44.573Z,990.07
2018-09-23T04:01:44.752Z,990.06
2018-09-23T04:02:44.926Z,990.09
2018-09-23T04:03:45.104Z,990.13
2018-09-23T04:04:45.280Z,990.13
2018-09-23T04:05:45.458Z,990.16
2018-09-23T04:06:45.664Z,990.24
2018-09-23T04:07:45.805Z,990.19
2018-09-23T04:08:45.986Z,990.22
2018-09-23T04:09:46.161Z,990.20
2018-09-23T04:10:46.340Z,990.18
2018-09-23T04:11:46.506Z,990.16
2018-09-23T04:12:46.695Z,990.19
2018-09-23T04:13:46.871Z,990.15
2018-09-23T04:14:47.050Z,990.18
2018-09-23T04:15:47.229Z,990.23
2018-09-23T04:16:47.401Z,990.20
2018-09-23T04:17:47.582Z,990.19
2018-09-23T04:18:47.756Z,990.20
2018-09-23T04:19:47.935Z,990.13
2018-09-23T04:20:48.113Z,990.18
2018-09-23T04:21:48.288Z,990.16
2018-09-23T04:22:48.464Z,990.14
2018-09-23T04:23:48.640Z,990.13
2018-09-23T04:24:48.822Z,990.12
2018-09-23T04:25:48.997Z,990.10
2018-09-23T04:26:49.178Z,990.03
2018-09-23T04:27:49.352Z,989.98
2018-09-23T04:28:49.531Z,990.01
2018-09-23T04:29:49.705Z,989.99
2018-09-23T04:30:49.890Z,990.00
2018-09-23T04:31:50.053Z,990.01
2018-09-23T04:32:50.234Z,989.99
2018-09-23T04:33:50.414Z,989.98
2018-09-23T04:34:50.587Z,989.90
2018-09-23T04:35:50.765Z,989.93
2018-09-23T04:36:50.937Z,989.93
2018-09-23T04:37:51.114Z,989.94
2018-09-23T04:38:51.291Z,989.98
2018-09-23T04:39:51.468Z,990.01
2018-09-23T04:40:51.643Z,989.97
2018-09-23T04:41:51.816Z,990.05
2018-09-23T04:42:51.991Z,989.96
2018-09-23T04:43:52.182Z,989.96
2018-09-23T04:44:52.399Z,989.90
2018-09-23T04:45:52.525Z,989.85
2018-09-23T04:46:52.696Z,989.81
2018-09-23T04:47:52.872Z,989.82
2018-09-23T04:48:53.050Z,989.82
2018-09-23T04:49:53.222Z,989.86
2018-09-23T04:50:53.397Z,989.83
2018-09-23T04:51:53.576Z,989.78
2018-09-23T04:52:53.753Z,989.69
2018-09-23T04:53:53.929Z,989.58
2018-09-23T04:54:54.107Z,989.56
2018-09-23T04:55:54.292Z,989.47
2018-09-23T04:56:54.475Z,989.53
2018-09-23T04:57:54.647Z,989.44
2018-09-23T04:58:54.819Z,989.45
2018-09-23T04:59:54.995Z,989.48
2018-09-23T05:00:55.176Z,989.56
2018-09-23T05:01:55.353Z,989.56
2018-09-23T05:02:55.528Z,989.54
2018-09-23T05:03:55.753Z,989.62
2018-09-23T05:04:55.886Z,989.56
2018-09-23T05:05:56.063Z,989.57
2018-09-23T05:06:56.233Z,989.52
2018-09-23T05:07:56.408Z,989.53
2018-09-23T05:08:56.592Z,989.55
2018-09-23T05:09:56.765Z,989.47
2018-09-23T05:10:56.946Z,989.41
2018-09-23T05:11:57.121Z,989.35
2018-09-23T05:12:57.286Z,989.34
2018-09-23T05:13:57.467Z,989.36
2018-09-23T05:14:57.645Z,989.27
2018-09-23T05:15:57.818Z,989.30
2018-09-23T05:16:57.998Z,989.25
2018-09-23T05:17:58.172Z,989.26
2018-09-23T05:18:58.350Z,989.25
2018-09-23T05:19:58.524Z,989.24
2018-09-23T05:20:58.698Z,989.23
2018-09-23T05:21:58.876Z,989.25
2018-09-23T05:22:59.056Z,989.26
2018-09-23T05:23:59.234Z,989.29
2018-09-23T05:24:59.413Z,989.30
2018-09-23T05:25:59.589Z,989.31
2018-09-23T05:26:59.760Z,989.27
2018-09-23T05:27:59.942Z,989.23
2018-09-23T05:29:00.111Z,989.21
2018-09-23T05:30:00.292Z,989.14
2018-09-23T05:31:00.488Z,989.12
2018-09-23T05:32:00.641Z,989.11
2018-09-23T05:33:00.816Z,989.08
2018-09-23T05:34:00.999Z,989.00
2018-09-23T05:35:01.170Z,988.97
2018-09-23T05:36:01.348Z,988.95
2018-09-23T05:37:01.524Z,988.95
2018-09-23T05:38:01.703Z,989.00
2018-09-23T05:39:01.877Z,989.07
2018-09-23T05:40:02.050Z,989.05
2018-09-23T05:41:02.225Z,989.00
2018-09-23T05:42:02.404Z,988.98
2018-09-23T05:43:02.580Z,988.99
2018-09-23T05:44:02.781Z,989.01
2018-09-23T05:45:02.934Z,989.05
2018-09-23T05:46:03.115Z,989.03
2018-09-23T05:47:03.287Z,989.07
2018-09-23T05:48:03.461Z,989.12
2018-09-23T05:49:03.641Z,989.09
2018-09-23T05:50:03.817Z,989.03
2018-09-23T05:51:03.994Z,989.00
2018-09-23T05:52:04.171Z,988.93
2018-09-23T05:53:04.389Z,988.94
2018-09-23T05:54:04.523Z,988.91
2018-09-23T05:55:04.697Z,988.88
2018-09-23T05:56:04.875Z,988.86
2018-09-23T05:57:05.054Z,988.87
2018-09-23T05:58:05.230Z,988.89
2018-09-23T05:59:05.408Z,988.87
2018-09-23T06:00:05.571Z,988.86
2018-09-23T06:01:05.761Z,988.85
2018-09-23T06:02:05.937Z,988.83
2018-09-23T06:03:06.126Z,988.80
2018-09-23T06:04:06.291Z,988.73
2018-09-23T06:05:06.467Z,988.78
2018-09-23T06:06:06.643Z,988.76
2018-09-23T06:07:06.827Z,988.79
2018-09-23T06:08:07.003Z,988.82
2018-09-23T06:09:07.190Z,988.81
2018-09-23T06:10:07.355Z,988.84
2018-09-23T06:11:07.602Z,988.83
2018-09-23T06:12:07.707Z,988.81
2018-09-23T06:13:07.892Z,988.74
2018-09-23T06:14:08.068Z,988.76
2018-09-23T06:15:08.243Z,988.72
2018-09-23T06:16:08.419Z,988.75
2018-09-23T06:17:08.601Z,988.73
2018-09-23T06:18:08.795Z,988.68
2018-09-23T06:19:08.939Z,988.61
2018-09-23T06:20:09.231Z,988.59
2018-09-23T06:21:09.308Z,988.57
2018-09-23T06:22:09.485Z,988.58
2018-09-23T06:23:09.713Z,988.58
2018-09-23T06:24:09.891Z,988.56
2018-09-23T06:25:10.059Z,988.54
2018-09-23T06:26:10.218Z,988.55
2018-09-23T06:27:10.342Z,988.54
2018-09-23T06:28:10.521Z,988.60
2018-09-23T06:29:10.696Z,988.53
2018-09-23T06:30:10.929Z,988.53
2018-09-23T06:31:11.409Z,988.60
2018-09-23T06:32:11.298Z,988.58
2018-09-23T06:33:11.419Z,988.54
2018-09-23T06:34:11.687Z,988.55
2018-09-23T06:35:12.276Z,988.48
2018-09-23T06:36:12.091Z,988.46
2018-09-23T06:37:12.263Z,988.45
2018-09-23T06:38:12.207Z,988.43
2018-09-23T06:39:12.393Z,988.39
2018-09-23T06:40:12.560Z,988.32
2018-09-23T06:41:12.739Z,988.36
2018-09-23T06:42:12.931Z,988.32
2018-09-23T06:43:13.099Z,988.30
2018-09-23T06:44:13.267Z,988.27
2018-09-23T06:45:13.445Z,988.22
2018-09-23T06:46:13.648Z,988.23
2018-09-23T06:47:13.827Z,988.25
2018-09-23T06:48:14.009Z,988.19
2018-09-23T06:49:14.186Z,988.25
2018-09-23T06:50:14.362Z,988.25
2018-09-23T06:51:14.559Z,988.29
2018-09-23T06:52:14.711Z,988.26
2018-09-23T06:53:14.890Z,988.24
2018-09-23T06:54:15.074Z,988.21
2018-09-23T06:55:16.029Z,988.22
2018-09-23T06:56:15.449Z,988.14
2018-09-23T06:57:15.637Z,988.18
2018-09-23T06:58:15.807Z,988.13
2018-09-23T06:59:15.992Z,988.09
2018-09-23T07:00:16.162Z,988.04
2018-09-23T07:01:16.343Z,988.04
2018-09-23T07:02:16.519Z,988.06
2018-09-23T07:03:16.701Z,988.05
2018-09-23T07:04:16.883Z,988.07
2018-09-23T07:05:17.055Z,988.06
2018-09-23T07:06:17.230Z,988.03
2018-09-23T07:07:17.411Z,988.04
2018-09-23T07:08:17.596Z,988.05
2018-09-23T07:09:17.769Z,988.06
2018-09-23T07:10:17.995Z,988.07
2018-09-23T07:11:18.103Z,988.10
2018-09-23T07:12:18.282Z,988.09
2018-09-23T07:13:18.461Z,988.13
2018-09-23T07:14:18.639Z,988.09
2018-09-23T07:15:18.816Z,988.11
2018-09-23T07:16:18.989Z,988.13
2018-09-23T07:17:19.165Z,988.10
2018-09-23T07:18:19.339Z,988.10
2018-09-23T07:19:19.573Z,988.01
2018-09-23T07:20:19.732Z,988.01
2018-09-23T07:21:20.140Z,988.02
2018-09-23T07:22:20.047Z,987.98
2018-09-23T07:23:20.395Z,987.93
2018-09-23T07:25:20.584Z,987.98
2018-09-23T07:26:20.766Z,987.93
2018-09-23T07:27:20.941Z,987.91
2018-09-23T07:28:21.140Z,987.94
2018-09-23T07:29:21.304Z,987.94
2018-09-23T07:30:21.486Z,987.88
2018-09-23T07:31:21.641Z,987.87
2018-09-23T07:32:21.812Z,987.84
2018-09-23T07:33:22.040Z,987.81
2018-09-23T07:34:22.212Z,987.81
2018-09-23T07:35:22.336Z,987.81
2018-09-23T07:36:22.507Z,987.81
2018-09-23T07:37:22.688Z,987.80
2018-09-23T07:38:22.873Z,987.87
2018-09-23T07:39:23.050Z,987.90
2018-09-23T07:40:23.219Z,987.86
2018-09-23T07:41:23.433Z,987.84
2018-09-23T07:42:23.572Z,987.86
2018-09-23T07:43:23.742Z,987.87
2018-09-23T07:44:23.908Z,987.81
2018-09-23T07:45:24.082Z,987.85
2018-09-23T07:46:24.240Z,987.84
2018-09-23T07:47:24.444Z,987.87
2018-09-23T07:48:24.617Z,987.88
2018-09-23T07:49:24.788Z,987.89
2018-09-23T07:50:24.966Z,987.91
2018-09-23T07:51:25.148Z,987.89
2018-09-23T07:52:25.325Z,987.84
2018-09-23T07:53:25.512Z,987.81
2018-09-23T07:54:25.731Z,987.78
2018-09-23T07:55:25.851Z,987.76
2018-09-23T07:56:26.103Z,987.70
2018-09-23T07:57:26.224Z,987.67
2018-09-23T07:58:26.387Z,987.68
2018-09-23T07:59:26.571Z,987.66
2018-09-23T08:00:26.748Z,987.66
2018-09-23T08:01:26.924Z,987.69
2018-09-23T08:02:27.097Z,987.65
2018-09-23T08:03:27.319Z,987.61
2018-09-23T08:04:27.449Z,987.60
2018-09-23T08:05:27.629Z,987.59
2018-09-23T08:06:27.805Z,987.54
2018-09-23T08:07:27.996Z,987.58
2018-09-23T08:08:28.155Z,987.57
2018-09-23T08:09:28.333Z,987.59
2018-09-23T08:10:28.511Z,987.55
2018-09-23T08:11:28.669Z,987.58
2018-09-23T08:12:28.888Z,987.60
2018-09-23T08:13:29.270Z,987.59
2018-09-23T08:14:29.422Z,987.52
2018-09-23T08:15:29.378Z,987.51
2018-09-23T08:16:29.555Z,987.52
2018-09-23T08:17:29.733Z,987.52
2018-09-23T08:18:29.922Z,987.59
2018-09-23T08:19:30.219Z,987.53
2018-09-23T08:20:30.396Z,987.53
2018-09-23T08:21:30.469Z,987.52
2018-09-23T08:22:30.631Z,987.53
2018-09-23T08:23:30.815Z,987.48
2018-09-23T08:24:30.991Z,987.45
2018-09-23T08:25:31.196Z,987.43
2018-09-23T08:26:31.447Z,987.44
2018-09-23T08:27:31.511Z,987.42
2018-09-23T08:28:31.690Z,987.44
2018-09-23T08:29:32.022Z,987.46
2018-09-23T08:30:32.040Z,987.41
2018-09-23T08:31:32.212Z,987.38
2018-09-23T08:32:32.383Z,987.33
2018-09-23T08:33:32.567Z,987.35
2018-09-23T08:34:32.813Z,987.36
2018-09-23T08:35:32.906Z,987.31
2018-09-23T08:36:33.085Z,987.27
2018-09-23T08:37:33.322Z,987.29
2018-09-23T08:38:33.450Z,987.28
2018-09-23T08:39:33.623Z,987.30
2018-09-23T08:40:33.886Z,987.23
2018-09-23T08:41:33.965Z,987.24
2018-09-23T08:42:34.239Z,987.16
2018-09-23T08:43:34.310Z,987.17
2018-09-23T08:44:34.484Z,987.16
2018-09-23T08:45:34.713Z,987.10
2018-09-23T08:46:34.836Z,987.09
2018-09-23T08:47:35.004Z,987.06
2018-09-23T08:48:35.188Z,987.08
2018-09-23T08:49:35.358Z,987.05
2018-09-23T08:50:35.536Z,987.03
2018-09-23T08:51:35.713Z,987.04
2018-09-23T08:52:35.886Z,987.02
2018-09-23T08:53:36.067Z,986.95
2018-09-23T08:54:36.245Z,986.96
2018-09-23T08:55:36.423Z,986.93
2018-09-23T08:56:36.639Z,986.89
2018-09-23T08:57:36.837Z,986.91
2018-09-23T08:58:36.968Z,986.90
2018-09-23T08:59:37.134Z,986.85
2018-09-23T09:00:37.309Z,986.83
2018-09-23T09:01:37.505Z,986.83
2018-09-23T09:02:37.673Z,986.77
2018-09-23T09:03:37.879Z,986.77
2018-09-23T09:04:38.028Z,986.75
2018-09-23T09:05:38.202Z,986.72
2018-09-23T09:06:38.374Z,986.66
2018-09-23T09:07:38.556Z,986.62
2018-09-23T09:08:38.733Z,986.61
2018-09-23T09:09:38.903Z,986.61
2018-09-23T09:10:39.085Z,986.67
2018-09-23T09:11:39.323Z,986.65
2018-09-23T09:12:39.437Z,986.68
2018-09-23T09:13:39.619Z,986.65
2018-09-23T09:14:39.796Z,986.64
2018-09-23T09:15:39.973Z,986.66
2018-09-23T09:16:40.152Z,986.63
2018-09-23T09:17:40.324Z,986.58
2018-09-23T09:18:40.592Z,986.58
2018-09-23T09:19:40.672Z,986.50
2018-09-23T09:20:40.851Z,986.52
2018-09-23T09:21:41.031Z,986.51
2018-09-23T09:22:41.206Z,986.50
2018-09-23T09:23:41.383Z,986.51
2018-09-23T09:24:41.562Z,986.49
2018-09-23T09:25:41.740Z,986.48
2018-09-23T09:26:41.965Z,986.43
2018-09-23T09:27:42.095Z,986.44
2018-09-23T09:28:42.267Z,986.46
2018-09-23T09:29:42.446Z,986.42
2018-09-23T09:30:42.626Z,986.40
2018-09-23T09:31:42.807Z,986.36
2018-09-23T09:32:42.993Z,986.35
2018-09-23T09:33:43.165Z,986.37
2018-09-23T09:34:43.340Z,986.31
2018-09-23T09:35:43.514Z,986.31
2018-09-23T09:36:43.690Z,986.28
2018-09-23T09:37:43.871Z,986.27
2018-09-23T09:38:44.056Z,986.27
2018-09-23T09:39:44.227Z,986.22
2018-09-23T09:40:44.409Z,986.21
2018-09-23T09:41:44.647Z,986.10
2018-09-23T09:42:44.819Z,986.10
2018-09-23T09:43:44.994Z,986.12
2018-09-23T09:44:45.187Z,986.05
2018-09-23T09:45:45.346Z,986.05
2018-09-23T09:46:45.525Z,986.06
2018-09-23T09:47:45.709Z,986.03
2018-09-23T09:48:45.879Z,986.04
2018-09-23T09:49:46.042Z,985.99
2018-09-23T09:50:46.247Z,985.98
2018-09-23T09:51:46.410Z,985.93
2018-09-23T09:52:46.589Z,985.96
2018-09-23T09:53:46.775Z,985.97
2018-09-23T09:54:46.942Z,985.98
2018-09-23T09:55:47.120Z,985.95
2018-09-23T09:56:47.292Z,985.94
2018-09-23T09:57:47.476Z,985.87
2018-09-23T09:58:47.658Z,985.89
2018-09-23T09:59:47.842Z,985.86
2018-09-23T10:00:48.023Z,985.84
2018-09-23T10:01:48.192Z,985.73
2018-09-23T10:02:48.374Z,985.70
2018-09-23T10:03:48.618Z,985.67
2018-09-23T10:04:48.721Z,985.66
2018-09-23T10:05:48.900Z,985.59
2018-09-23T10:06:49.082Z,985.58
2018-09-23T10:07:49.262Z,985.56
2018-09-23T10:08:49.436Z,985.52
2018-09-23T10:09:49.614Z,985.49
2018-09-23T10:10:49.794Z,985.46
2018-09-23T10:11:49.980Z,985.47
2018-09-23T10:12:50.150Z,985.40
2018-09-23T10:13:50.342Z,985.42
2018-09-23T10:14:50.502Z,985.43
2018-09-23T10:15:50.673Z,985.41
2018-09-23T10:16:50.848Z,985.42
2018-09-23T10:17:51.028Z,985.42
2018-09-23T10:18:51.209Z,985.35
2018-09-23T10:19:51.384Z,985.37
2018-09-23T10:20:51.570Z,985.37
2018-09-23T10:21:51.740Z,985.36
2018-09-23T10:22:51.940Z,985.30
2018-09-23T10:23:52.150Z,985.34
2018-09-23T10:24:52.263Z,985.33
2018-09-23T10:25:52.453Z,985.37
2018-09-23T10:26:52.643Z,985.32
2018-09-23T10:27:52.795Z,985.25
2018-09-23T10:28:52.980Z,985.22
2018-09-23T10:29:53.171Z,985.19
2018-09-23T10:30:53.333Z,985.15
2018-09-23T10:31:53.611Z,985.13
2018-09-23T10:32:53.685Z,985.05
2018-09-23T10:33:53.865Z,984.99
2018-09-23T10:34:54.042Z,984.97
2018-09-23T10:35:54.223Z,984.93
2018-09-23T10:36:54.399Z,984.88
2018-09-23T10:37:54.581Z,984.93
2018-09-23T10:38:54.758Z,984.87
2018-09-23T10:39:54.947Z,984.81
2018-09-23T10:40:55.115Z,984.76
2018-09-23T10:41:55.299Z,984.75
2018-09-23T10:42:55.473Z,984.70
2018-09-23T10:43:55.648Z,984.68
2018-09-23T10:44:55.828Z,984.70
2018-09-23T10:45:56.002Z,984.65
2018-09-23T10:46:56.182Z,984.61
2018-09-23T10:47:56.371Z,984.51
2018-09-23T10:48:56.544Z,984.46
2018-09-23T10:49:56.722Z,984.40
2018-09-23T10:50:56.913Z,984.35
2018-09-23T10:51:57.069Z,984.34
2018-09-23T10:52:57.242Z,984.26
2018-09-23T10:53:57.420Z,984.29
2018-09-23T10:54:57.597Z,984.16
2018-09-23T10:55:57.777Z,984.16
2018-09-23T10:56:57.964Z,984.16
2018-09-23T10:57:58.130Z,984.13
2018-09-23T10:58:58.316Z,984.07
2018-09-23T10:59:58.488Z,984.04
2018-09-23T11:00:58.672Z,984.02
2018-09-23T11:01:58.844Z,983.94
2018-09-23T11:02:59.036Z,983.91
2018-09-23T11:03:59.327Z,983.89
2018-09-23T11:04:59.385Z,983.88
2018-09-23T11:05:59.562Z,983.83
2018-09-23T11:06:59.725Z,983.84
2018-09-23T11:07:59.905Z,983.73
2018-09-23T11:09:00.083Z,983.70
2018-09-23T11:10:00.272Z,983.67
2018-09-23T11:11:00.440Z,983.65
2018-09-23T11:12:00.620Z,983.56
2018-09-23T11:13:00.793Z,983.49
2018-09-23T11:14:00.976Z,983.46
2018-09-23T11:15:01.152Z,983.50
2018-09-23T11:16:01.337Z,983.49
2018-09-23T11:17:01.507Z,983.44
2018-09-23T11:18:01.685Z,983.36
2018-09-23T11:19:01.863Z,983.34
2018-09-23T11:20:02.042Z,983.31
2018-09-23T11:21:02.219Z,983.23
2018-09-23T11:22:02.404Z,983.16
2018-09-23T11:23:02.579Z,983.16
2018-09-23T11:24:02.752Z,983.19
2018-09-23T11:25:02.929Z,983.18
2018-09-23T11:26:03.107Z,983.16
2018-09-23T11:27:03.299Z,983.07
2018-09-23T11:28:03.466Z,982.97
2018-09-23T11:29:03.643Z,982.94
2018-09-23T11:30:03.817Z,982.83
2018-09-23T11:31:03.994Z,982.82
2018-09-23T11:32:04.172Z,982.84
2018-09-23T11:33:04.356Z,982.85
2018-09-23T11:34:04.533Z,982.87
2018-09-23T11:35:04.711Z,982.74
2018-09-23T11:36:04.905Z,982.73
2018-09-23T11:37:05.066Z,982.67
2018-09-23T11:38:05.244Z,982.64
2018-09-23T11:39:05.419Z,982.57
2018-09-23T11:40:05.672Z,982.57
2018-09-23T11:41:05.783Z,982.48
2018-09-23T11:42:05.956Z,982.39
2018-09-23T11:43:06.145Z,982.28
2018-09-23T11:44:06.306Z,982.21
2018-09-23T11:45:06.490Z,982.14
2018-09-23T11:46:06.662Z,982.04
2018-09-23T11:47:06.837Z,982.03
2018-09-23T11:48:07.019Z,982.00
2018-09-23T11:49:07.202Z,981.99
2018-09-23T11:50:07.385Z,981.92
2018-09-23T11:51:07.556Z,981.85
2018-09-23T11:52:07.734Z,981.78
2018-09-23T11:53:07.913Z,981.75
2018-09-23T11:54:08.090Z,981.77
2018-09-23T11:55:08.271Z,981.73
2018-09-23T11:56:08.445Z,981.72
2018-09-23T11:57:08.621Z,981.74
2018-09-23T11:58:08.805Z,981.78
2018-09-23T11:59:09.080Z,981.81
2018-09-23T12:00:09.159Z,981.81
2018-09-23T12:01:09.338Z,981.84
2018-09-23T12:02:09.659Z,981.81
2018-09-23T12:03:09.688Z,981.78
2018-09-23T12:04:09.855Z,981.75
2018-09-23T12:05:10.035Z,981.65
2018-09-23T12:06:10.212Z,981.58
2018-09-23T12:07:10.385Z,981.44
2018-09-23T12:08:10.559Z,981.31
2018-09-23T12:09:10.744Z,981.22
2018-09-23T12:10:10.981Z,981.16
2018-09-23T12:11:11.101Z,981.11
2018-09-23T12:12:11.278Z,981.04
2018-09-23T12:13:11.458Z,981.00
2018-09-23T12:14:11.634Z,980.94
2018-09-23T12:15:11.810Z,980.92
2018-09-23T12:16:11.998Z,980.85
2018-09-23T12:17:12.166Z,980.74
2018-09-23T12:18:12.345Z,980.66
2018-09-23T12:19:12.532Z,980.57
2018-09-23T12:20:12.703Z,980.33
2018-09-23T12:21:12.883Z,980.20
2018-09-23T12:22:13.065Z,980.15
2018-09-23T12:23:13.235Z,980.15
2018-09-23T12:24:13.427Z,980.17
2018-09-23T12:25:13.593Z,980.19
2018-09-23T12:26:13.771Z,980.20
2018-09-23T12:27:13.962Z,980.16
2018-09-23T12:28:14.128Z,980.28
2018-09-23T12:29:14.311Z,980.25
2018-09-23T12:30:14.485Z,980.17
2018-09-23T12:31:14.672Z,980.14